createdAt,value
2022-10-28T00:01:27.982Z,99936.97
2022-10-28T00:03:58.605Z,99928.28
2022-10-28T00:06:32.638Z,99921.22
2022-10-28T00:09:00.434Z,99925.47
2022-10-28T00:11:34.110Z,99918.53
2022-10-28T00:14:04.485Z,99928.81
2022-10-28T00:16:34.564Z,99930.56
2022-10-28T00:19:03.466Z,99934.84
2022-10-28T00:21:33.534Z,99941.00
2022-10-28T00:24:00.374Z,99943.56
2022-10-28T00:26:31.440Z,99941.06
2022-10-28T00:29:08.412Z,99946.47
2022-10-28T00:31:37.688Z,99951.78
2022-10-28T00:34:07.782Z,99944.16
2022-10-28T00:36:39.313Z,99933.91
2022-10-28T00:39:16.705Z,99922.06
2022-10-28T00:42:03.760Z,99926.59
2022-10-28T00:44:58.093Z,99930.25
2022-10-28T00:47:45.825Z,99935.59
2022-10-28T00:50:46.405Z,99947.00
2022-10-28T00:53:28.188Z,99944.44
2022-10-28T00:55:58.443Z,99944.63
2022-10-28T00:58:27.091Z,99936.03
2022-10-28T01:00:54.750Z,99934.44
2022-10-28T01:03:22.564Z,99938.00
2022-10-28T01:05:51.576Z,99925.16
2022-10-28T01:08:19.149Z,99925.28
2022-10-28T01:10:57.659Z,99925.44
2022-10-28T01:13:52.189Z,99923.81
2022-10-28T01:16:38.555Z,99920.53
2022-10-28T01:19:35.878Z,99931.09
2022-10-28T01:25:12.757Z,99938.97
2022-10-28T01:27:57.275Z,99929.63
2022-10-28T01:30:27.292Z,99932.22
2022-10-28T01:33:23.154Z,99924.63
2022-10-28T01:36:08.830Z,99928.03
2022-10-28T01:39:33.868Z,99926.50
2022-10-28T01:42:20.649Z,99923.16
2022-10-28T01:45:07.282Z,99919.81
2022-10-28T01:47:53.262Z,99917.31
2022-10-28T01:50:50.637Z,99919.19
2022-10-28T01:53:23.094Z,99914.03
2022-10-28T01:55:55.389Z,99913.19
2022-10-28T01:58:29.447Z,99912.34
2022-10-28T02:00:58.307Z,99911.59
2022-10-28T02:03:25.643Z,99903.16
2022-10-28T02:05:56.900Z,99906.56
2022-10-28T02:08:46.359Z,99907.59
2022-10-28T02:12:23.447Z,99902.06
2022-10-28T02:15:29.260Z,99893.75
2022-10-28T02:18:17.777Z,99895.72
2022-10-28T02:20:56.192Z,99892.34
2022-10-28T02:23:54.163Z,99901.97
2022-10-28T02:26:39.790Z,99902.09
2022-10-28T02:29:17.375Z,99898.72
2022-10-28T02:31:58.127Z,99896.28
2022-10-28T02:34:37.558Z,99910.09
2022-10-28T02:37:19.600Z,99910.25
2022-10-28T02:39:53.048Z,99906.88
2022-10-28T02:42:30.128Z,99917.28
2022-10-28T02:45:22.310Z,99917.44
2022-10-28T02:47:59.080Z,99916.72
2022-10-28T02:50:35.169Z,99905.69
2022-10-28T02:53:29.367Z,99905.84
2022-10-28T02:56:00.319Z,99904.22
2022-10-28T02:58:27.271Z,99896.63
2022-10-28T03:00:54.109Z,99898.34
2022-10-28T03:03:20.924Z,99898.50
2022-10-28T03:05:47.672Z,99904.63
2022-10-28T03:08:14.379Z,99897.03
2022-10-28T03:10:41.165Z,99887.69
2022-10-28T03:13:07.862Z,99894.66
2022-10-28T03:15:34.582Z,99884.41
2022-10-28T03:18:01.361Z,99885.47
2022-10-28T03:20:28.125Z,99891.44
2022-10-28T03:22:55.185Z,99889.75
2022-10-28T03:25:22.295Z,99883.78
2022-10-28T03:27:49.010Z,99878.75
2022-10-28T03:30:18.313Z,99883.91
2022-10-28T03:32:45.102Z,99877.97
2022-10-28T03:35:13.026Z,99882.31
2022-10-28T03:37:44.292Z,99872.97
2022-10-28T03:40:13.008Z,99877.41
2022-10-28T03:42:42.806Z,99874.00
2022-10-28T03:45:10.630Z,99867.25
2022-10-28T03:47:37.397Z,99859.63
2022-10-28T03:50:04.512Z,99856.25
2022-10-28T03:52:31.266Z,99851.22
2022-10-28T03:54:58.183Z,99852.19
2022-10-28T03:57:24.961Z,99854.00
2022-10-28T03:59:51.695Z,99852.41
2022-10-28T04:02:18.541Z,99857.72
2022-10-28T04:04:45.354Z,99863.84
2022-10-28T04:07:12.164Z,99871.66
2022-10-28T04:09:38.896Z,99876.06
2022-10-28T04:12:06.837Z,99871.88
2022-10-28T04:14:33.576Z,99878.88
2022-10-28T04:17:00.496Z,99878.06
2022-10-28T04:19:27.548Z,99871.34
2022-10-28T04:21:54.469Z,99881.63
2022-10-28T04:24:21.309Z,99878.22
2022-10-28T04:26:48.051Z,99874.88
2022-10-28T04:29:14.776Z,99874.94
2022-10-28T04:31:41.492Z,99880.97
2022-10-28T04:34:08.228Z,99875.16
2022-10-28T04:36:34.958Z,99873.41
2022-10-28T04:39:01.807Z,99872.56
2022-10-28T04:41:28.602Z,99871.78
2022-10-28T04:43:56.261Z,99869.22
2022-10-28T04:46:23.062Z,99864.13
2022-10-28T04:48:49.793Z,99864.19
2022-10-28T04:51:16.538Z,99859.94
2022-10-28T04:53:43.248Z,99860.06
2022-10-28T04:56:10.113Z,99853.25
2022-10-28T04:58:36.809Z,99848.97
2022-10-28T05:01:08.415Z,99861.84
2022-10-28T05:03:35.714Z,99864.63
2022-10-28T05:06:02.921Z,99874.09
2022-10-28T05:08:29.774Z,99874.16
2022-10-28T05:10:56.533Z,99878.53
2022-10-28T05:13:23.348Z,99888.06
2022-10-28T05:15:50.809Z,99879.47
2022-10-28T05:18:18.305Z,99885.59
2022-10-28T05:20:45.118Z,99893.38
2022-10-28T05:23:12.312Z,99888.28
2022-10-28T05:25:39.168Z,99889.19
2022-10-28T05:28:05.898Z,99887.53
2022-10-28T05:30:32.657Z,99878.13
2022-10-28T05:33:04.083Z,99887.53
2022-10-28T05:35:31.787Z,99877.28
2022-10-28T05:37:58.618Z,99881.59
2022-10-28T05:40:25.448Z,99881.59
2022-10-28T05:42:52.560Z,99875.63
2022-10-28T05:45:19.706Z,99886.81
2022-10-28T05:47:48.639Z,99884.28
2022-10-28T05:50:18.710Z,99886.00
2022-10-28T05:52:52.081Z,99889.53
2022-10-28T05:55:20.904Z,99877.63
2022-10-28T05:57:50.227Z,99874.34
2022-10-28T06:00:21.124Z,99881.28
2022-10-28T06:02:48.153Z,99881.34
2022-10-28T06:05:15.856Z,99884.81
2022-10-28T06:07:43.496Z,99883.13
2022-10-28T06:10:11.865Z,99889.13
2022-10-28T06:12:37.619Z,99889.13
2022-10-28T06:15:04.976Z,99889.13
2022-10-28T06:17:31.687Z,99881.41
2022-10-28T06:19:58.412Z,99874.50
2022-10-28T06:22:25.149Z,99879.66
2022-10-28T06:24:51.873Z,99878.84
2022-10-28T06:27:18.557Z,99882.16
2022-10-28T06:29:45.249Z,99886.44
2022-10-28T06:32:11.926Z,99884.69
2022-10-28T06:34:38.708Z,99883.72
2022-10-28T06:37:05.707Z,99881.03
2022-10-28T06:39:32.908Z,99882.59
2022-10-28T06:41:59.804Z,99883.38
2022-10-28T06:44:26.562Z,99881.47
2022-10-28T06:46:55.341Z,99875.28
2022-10-28T06:49:22.152Z,99877.75
2022-10-28T06:51:49.838Z,99880.13
2022-10-28T06:54:16.557Z,99875.63
2022-10-28T06:56:45.244Z,99888.19
2022-10-28T06:59:12.075Z,99885.44
2022-10-28T07:01:39.120Z,99890.41
2022-10-28T07:04:08.804Z,99895.44
2022-10-28T07:06:35.476Z,99891.03
2022-10-28T07:09:02.185Z,99894.34
2022-10-28T07:11:28.897Z,99901.94
2022-10-28T07:13:55.574Z,99906.00
2022-10-28T07:16:22.340Z,99899.03
2022-10-28T07:18:49.005Z,99901.38
2022-10-28T07:21:18.233Z,99899.44
2022-10-28T07:23:47.283Z,99910.34
2022-10-28T07:26:14.065Z,99907.53
2022-10-28T07:28:42.807Z,99911.56
2022-10-28T07:33:41.254Z,99903.03
2022-10-28T07:36:08.474Z,99906.97
2022-10-28T07:38:35.278Z,99911.56
2022-10-28T07:41:08.374Z,99911.06
2022-10-28T07:43:39.358Z,99902.75
2022-10-28T07:46:08.046Z,99895.97
2022-10-28T07:48:36.933Z,99899.22
2022-10-28T07:51:06.003Z,99895.88
2022-10-28T07:53:33.743Z,99903.56
2022-10-28T07:56:05.728Z,99900.75
2022-10-28T07:58:32.645Z,99899.16
2022-10-28T08:01:08.450Z,99904.81
2022-10-28T08:03:38.993Z,99898.19
2022-10-28T08:06:17.397Z,99904.03
2022-10-28T08:08:46.599Z,99900.81
2022-10-28T08:11:18.840Z,99903.13
2022-10-28T08:13:47.081Z,99897.78
2022-10-28T08:16:14.000Z,99903.72
2022-10-28T08:18:41.371Z,99903.38
2022-10-28T08:21:11.011Z,99900.13
2022-10-28T08:23:38.406Z,99903.00
2022-10-28T08:26:05.894Z,99911.06
2022-10-28T08:28:32.732Z,99898.16
2022-10-28T08:31:08.599Z,99899.53
2022-10-28T08:33:46.893Z,99904.28
2022-10-28T08:36:16.595Z,99900.22
2022-10-28T08:38:45.855Z,99903.97
2022-10-28T08:41:45.035Z,99892.44
2022-10-28T08:44:38.915Z,99890.13
2022-10-28T08:47:34.596Z,99887.91
2022-10-28T08:50:16.405Z,99887.47
2022-10-28T08:53:05.466Z,99885.06
2022-10-28T08:55:38.488Z,99875.91
2022-10-28T08:58:16.526Z,99884.91
2022-10-28T09:00:50.527Z,99891.13
2022-10-28T09:03:25.589Z,99886.91
2022-10-28T09:06:04.274Z,99887.31
2022-10-28T09:08:37.467Z,99884.97
2022-10-28T09:11:37.918Z,99892.69
2022-10-28T09:15:02.847Z,99896.59
2022-10-28T09:17:51.040Z,99896.53
2022-10-28T09:20:51.154Z,99901.63
2022-10-28T09:23:42.577Z,99892.13
2022-10-28T09:26:41.994Z,99893.06
2022-10-28T09:30:05.353Z,99903.06
2022-10-28T09:33:07.084Z,99891.63
2022-10-28T09:35:45.407Z,99897.88
2022-10-28T09:38:28.544Z,99888.44
2022-10-28T09:41:02.818Z,99890.75
2022-10-28T09:43:36.910Z,99898.31
2022-10-28T09:46:18.433Z,99893.31
2022-10-28T09:48:55.663Z,99888.59
2022-10-28T09:52:04.416Z,99892.88
2022-10-28T09:54:44.259Z,99894.75
2022-10-28T09:57:13.760Z,99891.81
2022-10-28T09:59:44.336Z,99890.69
2022-10-28T10:02:28.580Z,99896.38
2022-10-28T10:05:01.902Z,99895.78
2022-10-28T10:07:43.363Z,99893.66
2022-10-28T10:10:23.108Z,99905.53
2022-10-28T10:12:53.093Z,99897.19
2022-10-28T10:15:35.696Z,99900.06
2022-10-28T10:18:05.893Z,99905.44
2022-10-28T10:20:58.575Z,99910.38
2022-10-28T10:23:33.012Z,99902.63
2022-10-28T10:26:12.806Z,99898.34
2022-10-28T10:28:45.316Z,99899.28
2022-10-28T10:31:26.484Z,99906.16
2022-10-28T10:33:56.665Z,99901.03
2022-10-28T10:36:28.719Z,99905.84
2022-10-28T10:39:01.898Z,99897.44
2022-10-28T10:41:39.794Z,99901.19
2022-10-28T10:44:35.749Z,99893.69
2022-10-28T10:47:06.015Z,99909.88
2022-10-28T10:49:37.158Z,99891.88
2022-10-28T10:52:15.862Z,99903.97
2022-10-28T10:54:59.150Z,99900.06
2022-10-28T10:57:26.851Z,99894.78
2022-10-28T10:59:56.421Z,99902.72
2022-10-28T11:02:39.696Z,99893.31
2022-10-28T11:05:10.876Z,99890.16
2022-10-28T11:07:47.777Z,99895.44
2022-10-28T11:10:35.378Z,99874.81
2022-10-28T11:13:26.070Z,99893.56
2022-10-28T11:16:16.346Z,99889.91
2022-10-28T11:18:46.736Z,99887.41
2022-10-28T11:21:31.335Z,99894.00
2022-10-28T11:24:33.557Z,99879.97
2022-10-28T11:27:17.477Z,99881.84
2022-10-28T11:29:46.203Z,99871.75
2022-10-28T11:32:27.103Z,99867.56
2022-10-28T11:35:07.713Z,99868.09
2022-10-28T11:38:12.843Z,99866.22
2022-10-28T11:41:00.760Z,99868.50
2022-10-28T11:43:57.562Z,99865.91
2022-10-28T11:46:46.717Z,99857.34
2022-10-28T11:49:25.294Z,99861.59
2022-10-28T11:52:16.670Z,99853.75
2022-10-28T11:55:26.030Z,99857.69
2022-10-28T11:58:27.944Z,99844.63
2022-10-28T12:01:21.176Z,99844.66
2022-10-28T12:04:08.861Z,99842.66
2022-10-28T12:07:16.830Z,99844.41
2022-10-28T12:10:11.726Z,99853.44
2022-10-28T12:12:57.024Z,99844.88
2022-10-28T12:16:04.453Z,99838.69
2022-10-28T12:19:04.503Z,99843.94
2022-10-28T12:21:45.911Z,99843.72
2022-10-28T12:24:21.185Z,99839.84
2022-10-28T12:26:57.953Z,99835.25
2022-10-28T12:29:33.658Z,99838.91
2022-10-28T12:32:15.051Z,99828.09
2022-10-28T12:35:00.549Z,99835.38
2022-10-28T12:37:53.097Z,99833.31
2022-10-28T12:40:24.449Z,99829.72
2022-10-28T12:43:11.768Z,99836.66
2022-10-28T12:45:41.441Z,99850.41
2022-10-28T12:48:42.608Z,99848.81
2022-10-28T12:51:40.719Z,99859.06
2022-10-28T12:54:38.233Z,99858.03
2022-10-28T12:57:13.418Z,99862.69
2022-10-28T12:59:59.492Z,99858.22
2022-10-28T13:02:54.563Z,99856.91
2022-10-28T13:05:53.313Z,99882.72
2022-10-28T13:08:58.297Z,99883.72
2022-10-28T13:12:17.087Z,99893.38
2022-10-28T13:15:20.794Z,99890.63
2022-10-28T13:18:25.097Z,99895.84
2022-10-28T13:21:41.568Z,99887.56
2022-10-28T13:25:06.953Z,99885.31
2022-10-28T13:27:34.198Z,99880.44
2022-10-28T13:30:03.434Z,99878.34
2022-10-28T13:32:38.367Z,99876.31
2022-10-28T13:35:26.501Z,99886.78
2022-10-28T13:37:56.172Z,99886.63
2022-10-28T13:40:39.093Z,99891.03
2022-10-28T13:43:19.247Z,99894.44
2022-10-28T13:45:49.344Z,99899.56
2022-10-28T13:48:42.921Z,99906.75
2022-10-28T13:51:09.553Z,99913.47
2022-10-28T13:53:55.366Z,99905.72
2022-10-28T13:56:31.700Z,99914.47
2022-10-28T13:59:17.642Z,99914.44
2022-10-28T14:02:39.615Z,99911.59
2022-10-28T14:05:20.850Z,99912.38
2022-10-28T14:07:59.755Z,99919.19
2022-10-28T14:10:30.174Z,99923.38
2022-10-28T14:13:19.487Z,99921.66
2022-10-28T14:15:48.201Z,99929.97
2022-10-28T14:18:41.364Z,99941.75
2022-10-28T14:21:02.476Z,99952.72
2022-10-28T14:23:29.171Z,99947.09
2022-10-28T14:25:59.695Z,99947.44
2022-10-28T14:28:29.339Z,99946.91
2022-10-28T14:31:07.949Z,99945.53
2022-10-28T14:33:37.422Z,99946.69
2022-10-28T14:36:19.296Z,99956.69
2022-10-28T14:39:04.455Z,99965.94
2022-10-28T14:41:36.874Z,99970.81
2022-10-28T14:44:24.561Z,99974.25
2022-10-28T14:47:43.483Z,99982.03
2022-10-28T14:50:28.866Z,99993.97
2022-10-28T14:52:57.233Z,99980.53
2022-10-28T14:55:31.925Z,99990.25
2022-10-28T14:58:28.140Z,100004.63
2022-10-28T15:01:16.673Z,100005.00
2022-10-28T15:03:48.626Z,100009.50
2022-10-28T15:06:32.214Z,100008.19
2022-10-28T15:09:10.973Z,100014.53
2022-10-28T15:11:44.174Z,100013.22
2022-10-28T15:14:26.257Z,100024.22
2022-10-28T15:16:54.243Z,100017.00
2022-10-28T15:19:25.376Z,100015.78
2022-10-28T15:22:31.212Z,100008.84
2022-10-28T15:25:05.521Z,100013.94
2022-10-28T15:27:38.987Z,100007.63
2022-10-28T15:30:25.283Z,100014.41
2022-10-28T15:32:54.153Z,100015.72
2022-10-28T15:35:27.136Z,100017.91
2022-10-28T15:38:00.907Z,100021.78
2022-10-28T15:40:33.866Z,100017.94
2022-10-28T15:43:05.667Z,100019.44
2022-10-28T15:45:41.232Z,100024.97
2022-10-28T15:48:18.708Z,100019.47
2022-10-28T15:50:45.628Z,100023.28
2022-10-28T15:53:32.508Z,100029.09
2022-10-28T15:56:14.566Z,100026.97
2022-10-28T15:58:49.380Z,100025.53
2022-10-28T16:01:34.765Z,100033.13
2022-10-28T16:04:01.676Z,100030.94
2022-10-28T16:06:34.634Z,100038.13
2022-10-28T16:09:27.849Z,100044.66
2022-10-28T16:12:02.305Z,100045.00
2022-10-28T16:14:32.028Z,100043.66
2022-10-28T16:17:15.510Z,100040.53
2022-10-28T16:19:57.092Z,100049.63
2022-10-28T16:22:26.972Z,100054.31
2022-10-28T16:24:55.134Z,100045.13
2022-10-28T16:27:30.343Z,100050.81
2022-10-28T16:29:57.601Z,100065.97
2022-10-28T16:32:35.286Z,100060.56
2022-10-28T16:35:03.038Z,100063.53
2022-10-28T16:37:34.099Z,100056.25
2022-10-28T16:40:00.784Z,100063.59
2022-10-28T16:42:27.903Z,100063.03
2022-10-28T16:44:54.687Z,100073.69
2022-10-28T16:47:26.713Z,100076.50
2022-10-28T16:49:57.268Z,100074.28
2022-10-28T16:52:29.129Z,100078.94
2022-10-28T16:54:57.005Z,100075.81
2022-10-28T16:59:51.556Z,100081.69
2022-10-28T17:02:44.667Z,100077.97
2022-10-28T17:05:23.825Z,100076.53
2022-10-28T17:07:50.659Z,100074.31
2022-10-28T17:10:17.873Z,100077.13
2022-10-28T17:12:44.586Z,100074.75
2022-10-28T17:15:11.366Z,100073.31
2022-10-28T17:17:38.208Z,100078.69
2022-10-28T17:20:06.358Z,100071.28
2022-10-28T17:22:33.205Z,100071.63
2022-10-28T17:25:00.101Z,100087.38
2022-10-28T17:27:27.193Z,100080.75
2022-10-28T17:29:54.021Z,100084.44
2022-10-28T17:32:20.841Z,100089.91
2022-10-28T17:34:47.697Z,100097.75
2022-10-28T17:37:14.439Z,100110.03
2022-10-28T17:39:42.293Z,100107.66
2022-10-28T17:42:09.516Z,100116.47
2022-10-28T17:44:36.697Z,100122.66
2022-10-28T17:47:03.583Z,100125.44
2022-10-28T17:49:30.804Z,100128.22
2022-10-28T17:51:57.554Z,100123.28
2022-10-28T17:56:56.449Z,100124.44
2022-10-28T17:59:23.332Z,100135.72
2022-10-28T18:01:50.150Z,100128.19
2022-10-28T18:04:17.430Z,100126.56
2022-10-28T18:06:44.192Z,100129.22
2022-10-28T18:09:12.749Z,100127.63
2022-10-28T18:11:39.912Z,100139.75
2022-10-28T18:14:07.011Z,100131.28
2022-10-28T18:16:37.000Z,100124.53
2022-10-28T18:19:07.720Z,100128.91
2022-10-28T18:21:35.458Z,100129.06
2022-10-28T18:24:05.125Z,100136.06
2022-10-28T18:26:37.739Z,100128.41
2022-10-28T18:29:09.203Z,100132.81
2022-10-28T18:31:38.326Z,100142.41
2022-10-28T18:34:05.150Z,100138.22
2022-10-28T18:36:35.475Z,100135.78
2022-10-28T18:39:07.629Z,100144.47
2022-10-28T18:41:40.197Z,100142.88
2022-10-28T18:44:14.124Z,100144.72
2022-10-28T18:46:42.607Z,100149.97
2022-10-28T18:49:09.333Z,100149.22
2022-10-28T18:51:37.380Z,100146.78
2022-10-28T18:54:04.463Z,100151.16
2022-10-28T18:56:31.251Z,100156.31
2022-10-28T18:59:01.361Z,100149.59
2022-10-28T19:01:29.304Z,100152.19
2022-10-28T19:03:59.397Z,100152.38
2022-10-28T19:06:34.941Z,100160.94
2022-10-28T19:09:04.673Z,100162.75
2022-10-28T19:11:33.487Z,100161.84
2022-10-28T19:14:04.261Z,100157.56
2022-10-28T19:16:33.647Z,100159.41
2022-10-28T19:19:04.423Z,100165.38
2022-10-28T19:21:32.089Z,100171.47
2022-10-28T19:23:59.251Z,100176.63
2022-10-28T19:26:26.066Z,100186.16
2022-10-28T19:28:52.905Z,100181.81
2022-10-28T19:31:26.025Z,100181.06
2022-10-28T19:33:54.426Z,100193.94
2022-10-28T19:36:29.898Z,100193.94
2022-10-28T19:38:57.949Z,100196.53
2022-10-28T19:41:28.117Z,100205.16
2022-10-28T19:44:00.552Z,100204.34
2022-10-28T19:46:33.964Z,100209.50
2022-10-28T19:49:05.239Z,100210.38
2022-10-28T19:51:36.130Z,100203.53
2022-10-28T19:54:12.409Z,100217.25
2022-10-28T19:56:40.159Z,100216.44
2022-10-28T19:59:07.300Z,100215.59
2022-10-28T20:01:37.593Z,100215.59
2022-10-28T20:04:05.104Z,100212.25
2022-10-28T20:06:35.667Z,100217.31
2022-10-28T20:09:03.735Z,100219.97
2022-10-28T20:11:34.310Z,100228.59
2022-10-28T20:14:11.613Z,100233.75
2022-10-28T20:16:42.531Z,100237.34
2022-10-28T20:19:09.991Z,100239.09
2022-10-28T20:21:38.095Z,100240.81
2022-10-28T20:24:08.521Z,100243.41
2022-10-28T20:26:37.732Z,100239.25
2022-10-28T20:29:06.544Z,100247.13
2022-10-28T20:31:33.858Z,100246.31
2022-10-28T20:34:03.836Z,100253.25
2022-10-28T20:36:33.361Z,100251.66
2022-10-28T20:39:09.533Z,100255.94
2022-10-28T20:41:38.737Z,100261.22
2022-10-28T20:44:06.815Z,100268.16
2022-10-28T20:46:34.296Z,100271.66
2022-10-28T20:49:01.755Z,100263.13
2022-10-28T20:51:31.807Z,100270.84
2022-10-28T20:53:59.184Z,100274.31
2022-10-28T20:56:29.736Z,100261.44
2022-10-28T20:58:57.929Z,100270.97
2022-10-28T21:01:28.061Z,100262.34
2022-10-28T21:04:01.106Z,100267.50
2022-10-28T21:06:29.082Z,100278.78
2022-10-28T21:08:56.635Z,100282.19
2022-10-28T21:11:24.953Z,100275.25
2022-10-28T21:13:56.565Z,100267.53
2022-10-28T21:16:25.263Z,100268.47
2022-10-28T21:18:53.168Z,100267.59
2022-10-28T21:21:21.560Z,100272.75
2022-10-28T21:23:48.337Z,100259.94
2022-10-28T21:26:15.317Z,100255.66
2022-10-28T21:28:42.191Z,100257.50
2022-10-28T21:31:16.083Z,100254.16
2022-10-28T21:33:43.521Z,100247.38
2022-10-28T21:36:14.963Z,100267.16
2022-10-28T21:38:42.440Z,100261.28
2022-10-28T21:41:14.359Z,100272.41
2022-10-28T21:43:44.593Z,100269.97
2022-10-28T21:46:11.802Z,100266.56
2022-10-28T21:48:38.794Z,100264.06
2022-10-28T21:51:13.537Z,100267.53
2022-10-28T21:53:43.378Z,100271.97
2022-10-28T21:56:19.655Z,100271.22
2022-10-28T21:58:51.266Z,100273.06
2022-10-28T22:01:24.124Z,100282.63
2022-10-28T22:03:54.448Z,100276.72
2022-10-28T22:06:21.775Z,100278.41
2022-10-28T22:08:48.498Z,100275.97
2022-10-28T22:11:19.552Z,100281.13
2022-10-28T22:13:48.118Z,100276.91
2022-10-28T22:16:17.966Z,100286.38
2022-10-28T22:18:45.751Z,100273.53
2022-10-28T22:21:23.162Z,100271.88
2022-10-28T22:23:50.800Z,100282.19
2022-10-28T22:26:21.202Z,100274.47
2022-10-28T22:28:48.839Z,100276.16
2022-10-28T22:31:20.115Z,100274.41
2022-10-28T22:36:22.731Z,100270.94
2022-10-28T22:38:50.488Z,100265.78
2022-10-28T22:41:25.999Z,100263.97
2022-10-28T22:43:56.556Z,100260.56
2022-10-28T22:46:26.137Z,100255.34
2022-10-28T22:48:53.404Z,100256.25
2022-10-28T22:51:20.580Z,100264.72
2022-10-28T22:53:47.586Z,100267.22
2022-10-28T22:56:20.214Z,100265.47
2022-10-28T22:58:57.652Z,100267.13
2022-10-28T23:01:27.493Z,100265.41
2022-10-28T23:03:55.378Z,100269.66
2022-10-28T23:06:25.860Z,100272.19
2022-10-28T23:08:53.588Z,100272.94
2022-10-28T23:11:22.196Z,100260.06
2022-10-28T23:13:53.613Z,100261.66
2022-10-28T23:16:21.878Z,100267.72
2022-10-28T23:18:48.857Z,100263.44
2022-10-28T23:21:22.791Z,100266.81
2022-10-28T23:23:58.368Z,100272.88
2022-10-28T23:26:29.571Z,100269.44
2022-10-28T23:28:59.528Z,100273.75
2022-10-28T23:31:27.820Z,100278.91
2022-10-28T23:33:55.312Z,100284.88
2022-10-28T23:36:22.134Z,100286.63
2022-10-28T23:38:48.904Z,100284.88
2022-10-28T23:41:18.661Z,100283.09
2022-10-28T23:43:47.156Z,100286.50
2022-10-28T23:46:13.945Z,100289.09
2022-10-28T23:48:40.678Z,100280.47
2022-10-28T23:51:07.583Z,100275.31
2022-10-28T23:53:35.086Z,100278.69
2022-10-28T23:56:02.020Z,100272.75
2022-10-28T23:58:28.736Z,100280.47
